Airfield :
LOGIN :

Register | Disclaimer

   EN    FR    IT 

 










Legend :    VFR   Marginal VFR   IFR   Intensive IFR   Very Intensive IFR
Visi :
Ceiling :
>= 8 km
>= 3000ft
5 to 8 km
1000 to 3000 ft
1500m to 5 km
500 to 1000 ft
800 to 1500m
200 to 500 ft
< 800m
< 200 ft
Symbols :   Thunderstorms  Fog  Heavy snow  Heavy precipitations  Wind > 20 kt
SIGMETs :     Misc.  Thunderstorms  Icing  Turbulence  Mountain Waves  Volcanic Ashes






- Airport Elevation : 1234 ft
- IATA code : LUX


ELLX - Luxembourg Findel

CURRENT METAR :
  • 291120Z 16008KT 3500 BR BKN003 03/02 Q1013 BECMG 5000 BR

EXPIRED METARs :
  • 291050Z 16006KT 130V200 1500 BR BKN002 02/02 Q1014 BECMG 5000 BR
  • 291020Z 17007KT 130V200 0150 R24/1000VP2000D FG VV002 02/02 Q1014 BECMG 1000 BR
  • 290950Z 16008KT 0150 R24/0375V0650D FG VV001 02/01 Q1014 BECMG 1000 BR
  • 290920Z 17008KT 0150 R24/0550V1300U FG VV001 02/02 Q1014 BECMG 1000 BR
  • 290850Z 16008KT 130V190 0100 R24/0250N FG VV001 02/01 Q1015 NOSIG
  • 290820Z 16007KT 140V200 0100 R24/0225N FG VV001 01/01 Q1015 NOSIG
  • 290750Z 18007KT 0100 R24/0225N FG VV001 02/01 Q1015 NOSIG
  • 290720Z 17007KT 140V210 0100 R24/0225N FG VV001 02/01 Q1015 NOSIG
  • 290650Z 18006KT 140V210 0100 R24/0225N FG VV001 02/01 Q1016 NOSIG

TAF TAF ELLX
Valid from the 29 at 12:00 until the 01 at 18:00 UTC


291100Z 2912/0118 16007KT 8000 FEW008
BECMG 2921/2924 BKN010
PROB30
TEMPO 0100/0108 3000 -RADZ BKN004
TEMPO 0112/0118 18015G25KT
ATIS : +352 4798 27300
Met : +352 4798 27010 / 27050



MET'MAP, your aeronautical weather chart ! - Copyright ORBIFLY December 2007 - Disclaimer

ORBIFLY MET'MAP TEAM :

Programming & Development : Alexandra Zaïnal
Original concept : Baudouin d'Aumeries
Technical & hardware support : Manuel Goepfert
Assistance : Marc-Olivier Méhu




SOURCES & CREDITS :

   NOAA